createdAt,value
2023-01-05T00:01:47.626Z,16.30
2023-01-05T00:04:17.597Z,16.30
2023-01-05T00:06:46.408Z,16.30
2023-01-05T00:09:17.250Z,16.30
2023-01-05T00:12:03.496Z,16.30
2023-01-05T00:14:50.738Z,16.30
2023-01-05T00:17:39.000Z,16.30
2023-01-05T00:20:32.596Z,16.20
2023-01-05T00:23:01.058Z,16.30
2023-01-05T00:25:31.241Z,16.30
2023-01-05T00:27:59.630Z,16.30
2023-01-05T00:30:31.453Z,16.30
2023-01-05T00:33:00.118Z,16.30
2023-01-05T00:35:31.037Z,16.30
2023-01-05T00:37:59.346Z,16.30
2023-01-05T00:40:27.710Z,16.30
2023-01-05T00:42:56.004Z,16.30
2023-01-05T00:45:24.305Z,16.30
2023-01-05T00:47:54.273Z,16.30
2023-01-05T00:50:23.997Z,16.30
2023-01-05T00:52:53.707Z,16.30
2023-01-05T00:55:22.068Z,16.30
2023-01-05T00:57:50.415Z,16.30
2023-01-05T01:00:20.553Z,16.30
2023-01-05T01:02:49.097Z,16.20
2023-01-05T01:05:17.660Z,16.30
2023-01-05T01:07:46.006Z,16.20
2023-01-05T01:10:16.001Z,16.30
2023-01-05T01:12:44.234Z,16.30
2023-01-05T01:15:12.755Z,16.30
2023-01-05T01:17:41.257Z,16.20
2023-01-05T01:20:10.962Z,16.20
2023-01-05T01:22:39.432Z,16.20
2023-01-05T01:25:08.355Z,16.20
2023-01-05T01:27:38.050Z,16.20
2023-01-05T01:30:07.623Z,16.20
2023-01-05T01:32:35.958Z,16.20
2023-01-05T01:35:04.405Z,16.20
2023-01-05T01:37:32.732Z,16.20
2023-01-05T01:40:01.152Z,16.20
2023-01-05T01:42:29.520Z,16.20
2023-01-05T01:45:01.587Z,16.20
2023-01-05T01:47:37.896Z,16.20
2023-01-05T01:50:11.898Z,16.20
2023-01-05T01:52:41.641Z,16.20
2023-01-05T01:55:10.752Z,16.20
2023-01-05T01:57:40.635Z,16.20
2023-01-05T02:00:14.929Z,16.20
2023-01-05T02:02:43.397Z,16.10
2023-01-05T02:05:14.072Z,16.20
2023-01-05T02:07:47.650Z,16.20
2023-01-05T02:10:19.585Z,16.20
2023-01-05T02:13:03.278Z,16.20
2023-01-05T02:15:43.631Z,16.20
2023-01-05T02:18:26.785Z,16.20
2023-01-05T02:21:04.262Z,16.10
2023-01-05T02:24:02.753Z,16.20
2023-01-05T02:27:00.734Z,16.10
2023-01-05T02:30:01.431Z,16.10
2023-01-05T02:32:37.989Z,16.10
2023-01-05T02:35:14.977Z,16.10
2023-01-05T02:37:47.960Z,16.10
2023-01-05T02:40:21.964Z,16.10
2023-01-05T02:42:53.514Z,16.10
2023-01-05T02:45:24.285Z,16.10
2023-01-05T02:47:54.005Z,16.10
2023-01-05T02:50:26.881Z,16.10
2023-01-05T02:53:02.044Z,16.10
2023-01-05T02:55:36.790Z,16.10
2023-01-05T02:58:12.060Z,16.10
2023-01-05T03:00:45.707Z,16.00
2023-01-05T03:03:19.680Z,16.00
2023-01-05T03:05:53.643Z,16.00
2023-01-05T03:08:29.299Z,16.10
2023-01-05T03:11:23.448Z,16.00
2023-01-05T03:13:57.203Z,16.10
2023-01-05T03:16:30.344Z,16.00
2023-01-05T03:19:20.469Z,16.00
2023-01-05T03:22:08.616Z,16.00
2023-01-05T03:24:56.407Z,16.10
2023-01-05T03:27:43.422Z,16.00
2023-01-05T03:30:31.639Z,16.00
2023-01-05T03:33:23.655Z,15.90
2023-01-05T03:35:58.935Z,16.00
2023-01-05T03:38:32.878Z,15.90
2023-01-05T03:41:04.185Z,16.00
2023-01-05T03:43:36.126Z,15.90
2023-01-05T03:46:11.696Z,16.00
2023-01-05T03:48:40.204Z,16.00
2023-01-05T03:51:10.471Z,15.90
2023-01-05T03:53:38.962Z,15.90
2023-01-05T03:56:07.791Z,15.90
2023-01-05T03:58:36.138Z,15.90
2023-01-05T04:01:04.552Z,15.90
2023-01-05T04:03:32.928Z,15.90
2023-01-05T04:06:01.755Z,15.90
2023-01-05T04:08:31.659Z,15.90
2023-01-05T04:11:12.704Z,15.90
2023-01-05T04:13:41.162Z,15.90
2023-01-05T04:16:09.597Z,15.90
2023-01-05T04:18:38.292Z,15.90
2023-01-05T04:21:07.515Z,15.80
2023-01-05T04:23:37.692Z,15.80
2023-01-05T04:26:06.543Z,15.90
2023-01-05T04:28:34.876Z,15.80
2023-01-05T04:31:03.203Z,15.80
2023-01-05T04:33:31.698Z,15.80
2023-01-05T04:36:00.116Z,15.80
2023-01-05T04:38:28.502Z,15.90
2023-01-05T04:40:58.138Z,15.80
2023-01-05T04:43:26.443Z,15.80
2023-01-05T04:45:54.821Z,15.80
2023-01-05T04:48:23.118Z,15.80
2023-01-05T04:50:54.578Z,15.80
2023-01-05T04:53:23.732Z,15.80
2023-01-05T04:55:52.453Z,15.80
2023-01-05T04:58:22.584Z,15.80
2023-01-05T05:00:51.460Z,15.80
2023-01-05T05:03:19.783Z,15.80
2023-01-05T05:05:48.160Z,15.80
2023-01-05T05:08:16.464Z,15.80
2023-01-05T05:10:44.789Z,15.80
2023-01-05T05:13:13.088Z,15.80
2023-01-05T05:15:42.856Z,15.80
2023-01-05T05:18:11.177Z,15.80
2023-01-05T05:20:41.934Z,15.80
2023-01-05T05:23:10.218Z,15.80
2023-01-05T05:25:38.597Z,15.80
2023-01-05T05:28:07.160Z,15.80
2023-01-05T05:30:35.739Z,15.80
2023-01-05T05:33:05.582Z,15.80
2023-01-05T05:35:33.843Z,15.80
2023-01-05T05:38:02.269Z,15.80
2023-01-05T05:40:30.548Z,15.80
2023-01-05T05:42:58.888Z,15.80
2023-01-05T05:45:27.579Z,15.80
2023-01-05T05:47:55.842Z,15.80
2023-01-05T05:50:25.678Z,15.80
2023-01-05T05:52:54.225Z,15.80
2023-01-05T05:55:22.540Z,15.80
2023-01-05T05:57:50.837Z,15.70
2023-01-05T06:00:19.675Z,15.80
2023-01-05T06:02:48.034Z,15.70
2023-01-05T06:05:16.739Z,15.70
2023-01-05T06:07:46.453Z,15.80
2023-01-05T06:10:14.855Z,15.80
2023-01-05T06:12:43.309Z,15.70
2023-01-05T06:15:12.381Z,15.80
2023-01-05T06:17:40.815Z,15.70
2023-01-05T06:20:10.677Z,15.70
2023-01-05T06:22:39.514Z,15.70
2023-01-05T06:25:10.325Z,15.70
2023-01-05T06:27:38.782Z,15.70
2023-01-05T06:30:08.803Z,15.70
2023-01-05T06:32:37.252Z,15.70
2023-01-05T06:35:06.156Z,15.70
2023-01-05T06:37:34.511Z,15.70
2023-01-05T06:40:02.790Z,15.80
2023-01-05T06:42:33.256Z,15.70
2023-01-05T06:45:01.548Z,15.70
2023-01-05T06:47:30.076Z,15.80
2023-01-05T06:49:58.469Z,15.70
2023-01-05T06:52:26.810Z,15.70
2023-01-05T06:54:55.084Z,15.70
2023-01-05T06:57:24.407Z,15.70
2023-01-05T06:59:54.053Z,15.70
2023-01-05T07:02:22.461Z,15.70
2023-01-05T07:04:50.871Z,15.80
2023-01-05T07:07:19.138Z,15.70
2023-01-05T07:09:49.734Z,15.70
2023-01-05T07:12:18.199Z,15.70
2023-01-05T07:14:46.552Z,15.80
2023-01-05T07:17:16.191Z,15.70
2023-01-05T07:19:44.533Z,15.70
2023-01-05T07:22:12.861Z,15.70
2023-01-05T07:24:41.190Z,15.70
2023-01-05T07:27:10.159Z,15.70
2023-01-05T07:29:38.631Z,15.70
2023-01-05T07:32:07.313Z,15.70
2023-01-05T07:34:37.334Z,15.70
2023-01-05T07:37:05.852Z,15.80
2023-01-05T07:39:34.219Z,15.70
2023-01-05T07:42:02.473Z,15.80
2023-01-05T07:44:30.779Z,15.70
2023-01-05T07:46:59.692Z,15.70
2023-01-05T07:49:28.360Z,15.70
2023-01-05T07:51:58.250Z,15.70
2023-01-05T07:54:27.545Z,15.70
2023-01-05T07:56:55.901Z,15.80
2023-01-05T07:59:24.241Z,15.70
2023-01-05T08:01:52.824Z,15.70
2023-01-05T08:04:21.374Z,15.80
2023-01-05T08:06:49.677Z,15.80
2023-01-05T08:09:36.900Z,15.80
2023-01-05T08:12:05.468Z,15.80
2023-01-05T08:14:34.033Z,15.80
2023-01-05T08:17:02.485Z,15.80
2023-01-05T08:19:30.813Z,15.70
2023-01-05T08:21:59.127Z,15.70
2023-01-05T08:24:28.809Z,15.80
2023-01-05T08:26:57.302Z,15.70
2023-01-05T08:29:25.665Z,15.80
2023-01-05T08:31:54.239Z,15.80
2023-01-05T08:34:22.557Z,15.80
2023-01-05T08:36:50.892Z,15.80
2023-01-05T08:39:19.233Z,15.80
2023-01-05T08:41:48.995Z,15.80
2023-01-05T08:44:17.433Z,15.80
2023-01-05T08:46:45.797Z,15.80
2023-01-05T08:49:14.281Z,15.80
2023-01-05T08:51:42.604Z,15.80
2023-01-05T08:54:10.972Z,15.80
2023-01-05T08:56:39.705Z,15.80
2023-01-05T08:59:12.864Z,15.80
2023-01-05T09:01:41.549Z,15.80
2023-01-05T09:04:10.094Z,15.90
2023-01-05T09:06:38.395Z,15.90
2023-01-05T09:09:08.787Z,16.00
2023-01-05T09:11:37.407Z,16.00
2023-01-05T09:14:05.810Z,16.00
2023-01-05T09:19:25.171Z,16.10
2023-01-05T09:21:54.247Z,16.10
2023-01-05T09:24:22.900Z,16.00
2023-01-05T09:26:51.634Z,16.00
2023-01-05T09:29:20.276Z,16.00
2023-01-05T09:31:50.122Z,16.00
2023-01-05T09:34:19.378Z,16.00
2023-01-05T09:36:47.795Z,16.00
2023-01-05T09:39:16.324Z,16.00
2023-01-05T09:41:48.165Z,15.90
2023-01-05T09:44:26.636Z,15.90
2023-01-05T09:47:01.216Z,16.00
2023-01-05T09:49:32.617Z,16.00
2023-01-05T09:52:03.389Z,16.00
2023-01-05T09:54:34.974Z,16.00
2023-01-05T09:57:09.834Z,16.00
2023-01-05T09:59:40.550Z,16.00
2023-01-05T10:02:30.887Z,16.00
2023-01-05T10:05:00.445Z,16.00
2023-01-05T10:07:40.829Z,16.10
2023-01-05T10:10:22.410Z,16.10
2023-01-05T10:13:04.213Z,16.10
2023-01-05T10:15:37.832Z,16.10
2023-01-05T10:18:14.073Z,16.10
2023-01-05T10:20:51.678Z,16.10
2023-01-05T10:23:43.199Z,16.20
2023-01-05T10:26:18.254Z,16.20
2023-01-05T10:28:52.565Z,16.20
2023-01-05T10:31:25.365Z,16.20
2023-01-05T10:34:05.964Z,16.20
2023-01-05T10:37:09.471Z,16.20
2023-01-05T10:40:01.403Z,16.20
2023-01-05T10:42:53.668Z,16.20
2023-01-05T10:45:22.895Z,16.20
2023-01-05T10:47:51.747Z,16.20
2023-01-05T10:50:34.946Z,16.20
2023-01-05T10:53:09.387Z,16.20
2023-01-05T10:55:51.823Z,16.20
2023-01-05T10:58:25.263Z,16.20
2023-01-05T11:00:56.827Z,16.20
2023-01-05T11:04:14.974Z,16.20
2023-01-05T11:06:30.259Z,16.20
2023-01-05T11:09:08.238Z,16.20
2023-01-05T11:11:36.687Z,16.20
2023-01-05T11:14:07.779Z,16.20
2023-01-05T11:16:38.367Z,16.20
2023-01-05T11:19:14.182Z,16.20
2023-01-05T11:21:45.983Z,16.20
2023-01-05T11:24:30.975Z,16.20
2023-01-05T11:27:01.721Z,16.20
2023-01-05T11:29:30.786Z,16.20
2023-01-05T11:32:01.246Z,16.30
2023-01-05T11:34:40.493Z,16.30
2023-01-05T11:37:23.596Z,16.20
2023-01-05T11:39:54.467Z,16.30
2023-01-05T11:42:30.977Z,16.20
2023-01-05T11:45:00.888Z,16.30
2023-01-05T11:47:36.633Z,16.30
2023-01-05T11:50:21.821Z,16.30
2023-01-05T11:52:54.019Z,16.30
2023-01-05T11:55:36.548Z,16.30
2023-01-05T11:58:24.598Z,16.30
2023-01-05T12:01:27.752Z,16.30
2023-01-05T12:04:21.662Z,16.30
2023-01-05T12:07:20.272Z,16.30
2023-01-05T12:09:58.155Z,16.30
2023-01-05T12:12:45.293Z,16.30
2023-01-05T12:15:38.931Z,16.30
2023-01-05T12:18:23.468Z,16.30
2023-01-05T12:20:58.163Z,16.30
2023-01-05T12:23:47.715Z,16.30
2023-01-05T12:26:24.570Z,16.30
2023-01-05T12:30:29.600Z,16.30
2023-01-05T12:35:38.594Z,16.30
2023-01-05T12:38:25.836Z,16.30
2023-01-05T12:41:38.153Z,16.30
2023-01-05T12:44:39.054Z,16.40
2023-01-05T12:47:34.147Z,16.40
2023-01-05T12:50:14.424Z,16.40
2023-01-05T12:52:47.586Z,16.50
2023-01-05T12:58:28.685Z,16.50
2023-01-05T13:00:58.728Z,16.50
2023-01-05T13:03:31.754Z,16.50
2023-01-05T13:06:05.788Z,16.60
2023-01-05T13:08:40.212Z,16.50
2023-01-05T13:11:14.738Z,16.60
2023-01-05T13:13:48.557Z,16.60
2023-01-05T13:16:22.615Z,16.60
2023-01-05T13:18:56.936Z,16.60
2023-01-05T13:21:26.794Z,16.60
2023-01-05T13:23:59.520Z,16.60
2023-01-05T13:26:30.356Z,16.60
2023-01-05T13:29:04.762Z,16.70
2023-01-05T13:31:50.118Z,16.60
2023-01-05T13:34:46.585Z,16.60
2023-01-05T13:38:05.636Z,16.70
2023-01-05T13:40:50.727Z,16.60
2023-01-05T13:44:03.842Z,16.70
2023-01-05T13:46:55.792Z,16.70
2023-01-05T13:49:53.265Z,16.70
2023-01-05T13:52:32.009Z,16.60
2023-01-05T13:55:04.927Z,16.60
2023-01-05T13:57:39.977Z,16.70
2023-01-05T14:00:21.471Z,16.60
2023-01-05T14:03:01.503Z,16.70
2023-01-05T14:05:33.355Z,16.70
2023-01-05T14:08:07.168Z,16.60
2023-01-05T14:10:35.781Z,16.70
2023-01-05T14:13:07.004Z,16.70
2023-01-05T14:15:39.959Z,16.70
2023-01-05T14:18:10.784Z,16.70
2023-01-05T14:20:44.786Z,16.70
2023-01-05T14:23:46.788Z,16.70
2023-01-05T14:26:15.120Z,16.70
2023-01-05T14:28:49.329Z,16.70
2023-01-05T14:31:48.863Z,16.70
2023-01-05T14:34:24.426Z,16.60
2023-01-05T14:37:06.926Z,16.70
2023-01-05T14:39:44.821Z,16.60
2023-01-05T14:42:31.362Z,16.60
2023-01-05T14:45:02.491Z,16.60
2023-01-05T14:47:37.199Z,16.60
2023-01-05T14:50:08.987Z,16.60
2023-01-05T14:52:58.264Z,16.60
2023-01-05T14:55:44.688Z,16.60
2023-01-05T14:58:15.931Z,16.60
2023-01-05T15:00:53.065Z,16.60
2023-01-05T15:03:28.586Z,16.60
2023-01-05T15:06:10.342Z,16.60
2023-01-05T15:09:13.546Z,16.60
2023-01-05T15:12:10.142Z,16.60
2023-01-05T15:15:06.699Z,16.60
2023-01-05T15:18:07.686Z,16.60
2023-01-05T15:21:17.421Z,16.50
2023-01-05T15:24:19.735Z,16.50
2023-01-05T15:27:17.345Z,16.50
2023-01-05T15:30:00.009Z,16.50
2023-01-05T15:32:31.397Z,16.50
2023-01-05T15:35:09.877Z,16.50
2023-01-05T15:37:40.009Z,16.50
2023-01-05T15:40:28.882Z,16.50
2023-01-05T15:43:00.606Z,16.50
2023-01-05T15:45:31.402Z,16.50
2023-01-05T15:48:03.226Z,16.50
2023-01-05T15:50:38.593Z,16.50
2023-01-05T15:53:07.351Z,16.50
2023-01-05T15:55:37.805Z,16.50
2023-01-05T15:58:16.548Z,16.40
2023-01-05T16:00:45.009Z,16.40
2023-01-05T16:03:23.588Z,16.50
2023-01-05T16:05:58.568Z,16.40
2023-01-05T16:08:27.630Z,16.40
2023-01-05T16:11:00.798Z,16.50
2023-01-05T16:13:34.046Z,16.40
2023-01-05T16:16:06.815Z,16.40
2023-01-05T16:18:40.907Z,16.40
2023-01-05T16:21:22.293Z,16.40
2023-01-05T16:23:54.394Z,16.40
2023-01-05T16:26:24.917Z,16.40
2023-01-05T16:28:53.375Z,16.30
2023-01-05T16:31:29.992Z,16.40
2023-01-05T16:34:16.342Z,16.30
2023-01-05T16:37:00.573Z,16.30
2023-01-05T16:39:34.208Z,16.30
2023-01-05T16:42:40.064Z,16.30
2023-01-05T16:45:11.258Z,16.30
2023-01-05T16:47:42.050Z,16.30
2023-01-05T16:51:01.421Z,16.30
2023-01-05T16:53:29.890Z,16.30
2023-01-05T16:56:00.771Z,16.30
2023-01-05T16:58:38.660Z,16.30
2023-01-05T17:01:20.047Z,16.30
2023-01-05T17:03:49.011Z,16.30
2023-01-05T17:06:26.271Z,16.30
2023-01-05T17:11:41.896Z,16.30
2023-01-05T17:14:14.164Z,16.30
2023-01-05T17:16:42.611Z,16.30
2023-01-05T17:19:14.290Z,16.30
2023-01-05T17:21:44.911Z,16.30
2023-01-05T17:24:14.757Z,16.30
2023-01-05T17:26:45.482Z,16.30
2023-01-05T17:29:21.473Z,16.30
2023-01-05T17:31:50.113Z,16.30
2023-01-05T17:34:18.969Z,16.30
2023-01-05T17:36:48.504Z,16.30
2023-01-05T17:39:17.433Z,16.30
2023-01-05T17:41:46.171Z,16.30
2023-01-05T17:44:14.622Z,16.30
2023-01-05T17:46:46.096Z,16.30
2023-01-05T17:49:16.026Z,16.30
2023-01-05T17:51:44.595Z,16.30
2023-01-05T17:54:12.997Z,16.30
2023-01-05T17:56:41.361Z,16.30
2023-01-05T17:59:09.694Z,16.30
2023-01-05T18:01:38.479Z,16.30
2023-01-05T18:04:19.110Z,16.30
2023-01-05T18:09:21.165Z,16.30
2023-01-05T18:11:50.800Z,16.30
2023-01-05T18:14:20.819Z,16.30
2023-01-05T18:16:49.243Z,16.30
2023-01-05T18:19:21.863Z,16.30
2023-01-05T18:21:53.810Z,16.30
2023-01-05T18:24:22.109Z,16.30
2023-01-05T18:26:55.642Z,16.30
2023-01-05T18:29:24.556Z,16.30
2023-01-05T18:31:54.413Z,16.30
2023-01-05T18:34:24.139Z,16.30
2023-01-05T18:36:58.393Z,16.30
2023-01-05T18:39:34.373Z,16.30
2023-01-05T18:42:02.696Z,16.30
2023-01-05T18:44:31.272Z,16.20
2023-01-05T18:46:59.529Z,16.30
2023-01-05T18:49:29.599Z,16.20
2023-01-05T18:51:58.018Z,16.20
2023-01-05T18:54:26.296Z,16.20
2023-01-05T18:56:54.772Z,16.20
2023-01-05T18:59:23.419Z,16.20
2023-01-05T19:01:51.802Z,16.20
2023-01-05T19:04:20.308Z,16.20
2023-01-05T19:06:50.080Z,16.20
2023-01-05T19:09:18.486Z,16.20
2023-01-05T19:11:48.618Z,16.20
2023-01-05T19:14:18.096Z,16.20
2023-01-05T19:16:47.261Z,16.10
2023-01-05T19:19:16.030Z,16.10
2023-01-05T19:21:46.238Z,16.10
2023-01-05T19:24:18.786Z,16.20
2023-01-05T19:26:48.101Z,16.10
2023-01-05T19:29:17.194Z,16.10
2023-01-05T19:31:46.063Z,16.20
2023-01-05T19:34:14.928Z,16.20
2023-01-05T19:36:43.217Z,16.10
2023-01-05T19:39:14.261Z,16.20
2023-01-05T19:41:46.890Z,16.10
2023-01-05T19:44:19.159Z,16.10
2023-01-05T19:46:49.340Z,16.10
2023-01-05T19:49:20.297Z,16.10
2023-01-05T19:51:49.225Z,16.10
2023-01-05T19:54:18.434Z,16.10
2023-01-05T19:56:48.196Z,16.10
2023-01-05T19:59:19.090Z,16.10
2023-01-05T20:01:47.618Z,16.00
2023-01-05T20:04:16.302Z,16.00
2023-01-05T20:06:46.681Z,16.00
2023-01-05T20:09:17.157Z,16.00
2023-01-05T20:11:49.020Z,16.00
2023-01-05T20:14:19.414Z,15.90
2023-01-05T20:16:50.280Z,15.90
2023-01-05T20:19:19.659Z,15.90
2023-01-05T20:21:48.480Z,15.90
2023-01-05T20:24:19.297Z,15.90
2023-01-05T20:26:50.977Z,15.90
2023-01-05T20:29:20.807Z,15.90
2023-01-05T20:31:54.661Z,15.80
2023-01-05T20:34:25.430Z,15.80
2023-01-05T20:36:53.729Z,15.80
2023-01-05T20:39:25.459Z,15.80
2023-01-05T20:42:05.590Z,15.80
2023-01-05T20:44:36.965Z,15.80
2023-01-05T20:47:06.868Z,15.80
2023-01-05T20:49:35.874Z,15.80
2023-01-05T20:52:05.006Z,15.80
2023-01-05T20:54:33.443Z,15.80
2023-01-05T20:57:03.292Z,15.80
2023-01-05T20:59:34.927Z,15.80
2023-01-05T21:02:12.355Z,15.80
2023-01-05T21:04:46.638Z,15.90
2023-01-05T21:07:15.178Z,15.90
2023-01-05T21:09:43.703Z,15.90
2023-01-05T21:12:13.618Z,15.90
2023-01-05T21:14:41.985Z,15.90
2023-01-05T21:17:10.694Z,15.90
2023-01-05T21:19:39.396Z,15.90
2023-01-05T21:22:08.636Z,15.90
2023-01-05T21:24:37.247Z,15.90
2023-01-05T21:27:05.800Z,15.90
2023-01-05T21:29:35.749Z,15.90
2023-01-05T21:32:04.203Z,15.90
2023-01-05T21:34:32.558Z,15.90
2023-01-05T21:37:00.877Z,15.90
2023-01-05T21:39:29.497Z,15.90
2023-01-05T21:42:15.295Z,15.90
2023-01-05T21:44:45.070Z,15.80
2023-01-05T21:47:14.224Z,15.80
2023-01-05T21:49:42.613Z,15.80
2023-01-05T21:52:29.447Z,15.80
2023-01-05T21:55:18.361Z,15.80
2023-01-05T21:57:46.767Z,15.70
2023-01-05T22:00:17.994Z,15.70
2023-01-05T22:02:46.364Z,15.70
2023-01-05T22:05:18.089Z,15.70
2023-01-05T22:07:48.411Z,15.70
2023-01-05T22:10:18.339Z,15.70
2023-01-05T22:12:47.707Z,15.70
2023-01-05T22:15:18.624Z,15.70
2023-01-05T22:17:49.212Z,15.60
2023-01-05T22:20:18.268Z,15.60
2023-01-05T22:22:46.578Z,15.60
2023-01-05T22:25:15.556Z,15.60
2023-01-05T22:27:43.932Z,15.50
2023-01-05T22:30:13.242Z,15.50
2023-01-05T22:32:43.031Z,15.50
2023-01-05T22:35:11.533Z,15.50
2023-01-05T22:37:40.076Z,15.50
2023-01-05T22:40:11.214Z,15.40
2023-01-05T22:42:39.862Z,15.40
2023-01-05T22:45:10.458Z,15.40
2023-01-05T22:47:38.873Z,15.40
2023-01-05T22:50:09.243Z,15.30
2023-01-05T22:52:37.576Z,15.40
2023-01-05T22:55:06.945Z,15.30
2023-01-05T22:57:35.300Z,15.30
2023-01-05T23:00:03.972Z,15.40
2023-01-05T23:02:32.433Z,15.30
2023-01-05T23:05:02.463Z,15.30
2023-01-05T23:07:33.481Z,15.30
2023-01-05T23:10:01.865Z,15.30
2023-01-05T23:12:30.266Z,15.30
2023-01-05T23:14:58.668Z,15.30
2023-01-05T23:17:27.002Z,15.20
2023-01-05T23:19:55.310Z,15.20
2023-01-05T23:22:23.859Z,15.20
2023-01-05T23:24:53.544Z,15.20
2023-01-05T23:27:21.814Z,15.20
2023-01-05T23:29:50.253Z,15.20
2023-01-05T23:32:18.550Z,15.30
2023-01-05T23:34:47.052Z,15.20
2023-01-05T23:37:15.387Z,15.20
2023-01-05T23:39:43.735Z,15.20
2023-01-05T23:42:33.468Z,15.20
2023-01-05T23:45:01.831Z,15.20
2023-01-05T23:47:30.100Z,15.20
2023-01-05T23:49:58.370Z,15.30
2023-01-05T23:52:26.771Z,15.30
2023-01-05T23:54:55.094Z,15.20
2023-01-05T23:57:24.819Z,15.30
2023-01-05T23:59:53.100Z,15.30
